Time;durP1;ratioP1;P1;durP2;ratioP2;P2;SDS_P1;SDS_P2;PMS_P1;PMS_P2;Temp;Humidity;BMP_temperature;BMP_pressure;BME280_temperature;BME280_humidity;BME280_pressure;Samples;Min_cycle;Max_cycle;Signal;HPM_P1;HPM_P2
2023/04/27 00:00:09;;;;;;;;;;;15.30;96.30;15.70;99541.00;;;;343718;28;88131;-89
2023/04/27 00:00:22;;;;;;;;;;;15.30;96.20;15.70;99542.00;;;;342691;28;82571;-89
2023/04/27 00:00:35;;;;;;;;;;;15.30;96.30;15.60;99541.00;;;;346252;28;90132;-89
2023/04/27 00:00:47;;;;;;;;;;;15.30;96.50;15.60;99538.00;;;;346548;28;82548;-89
2023/04/27 00:00:58;;;;;;;;;;;15.30;96.50;15.60;99538.00;;;;341690;28;90803;-89
2023/04/27 00:01:11;;;;;;;;;;;15.30;96.30;15.60;99542.00;;;;343606;28;83484;-89
2023/04/27 00:01:23;;;;;;;;;;;15.30;96.20;15.60;99544.00;;;;344234;28;90063;-89
2023/04/27 00:01:35;;;;;;;;;;;15.30;96.10;15.60;99541.00;;;;344980;28;83312;-89
2023/04/27 00:01:46;;;;;;;;;;;15.30;96.10;15.60;99547.00;;;;343040;28;89640;-89
2023/04/27 00:01:58;;;;;;;;;;;15.30;96.00;15.60;99537.00;;;;346298;28;83482;-89
2023/04/27 00:02:10;;;;;;;;;;;15.30;96.00;15.60;99545.00;;;;344640;28;88163;-89
2023/04/27 00:02:22;;;;;;;;;;;15.30;96.00;15.60;99547.00;;;;346215;28;82624;-88
2023/04/27 00:02:34;;;;;;;;;;;15.30;96.20;15.50;99542.00;;;;343114;28;88701;-90
2023/04/27 00:02:46;;;;;;;;;;;15.30;96.50;15.60;99539.00;;;;343509;28;83381;-89
2023/04/27 00:02:58;;;;;;;;;;;15.30;96.40;15.60;99539.00;;;;341831;28;89168;-88
2023/04/27 00:03:11;;;;;;;;;;;15.30;96.30;15.70;99545.00;;;;344810;28;83470;-89
2023/04/27 00:03:23;;;;;;;;;;;15.30;96.30;15.60;99540.00;;;;344463;28;89488;-90
2023/04/27 00:03:35;;;;;;;;;;;15.30;96.30;15.60;99543.00;;;;342192;28;83292;-89
2023/04/27 00:03:47;;;;;;;;;;;15.30;96.40;15.60;99541.00;;;;343036;28;91021;-90
2023/04/27 00:04:00;;;;;;;;;;;15.30;96.30;15.50;99544.00;;;;346074;28;83443;-89
2023/04/27 00:04:13;;;;;;;;;;;15.30;96.40;15.70;99544.00;;;;344449;28;88626;-89
2023/04/27 00:04:25;;;;;;;;;;;15.30;96.40;15.80;99549.00;;;;343543;28;83380;-88
2023/04/27 00:04:37;;;;;;;;;;;15.30;96.40;15.80;99541.00;;;;344558;28;89603;-89
2023/04/27 00:04:50;;;;;;;;;;;15.30;96.60;15.80;99547.00;;;;346033;28;83586;-88
2023/04/27 00:05:04;;;;;;;;;;;15.40;96.70;15.60;99547.00;;;;341737;28;87660;-89
2023/04/27 00:05:16;;;;;;;;;;;15.30;96.70;15.60;99554.00;;;;344976;28;83327;-89
2023/04/27 00:05:28;;;;;;;;;;;15.40;96.70;15.60;99544.00;;;;344225;28;91574;-89
2023/04/27 00:05:41;;;;;;;;;;;15.40;96.70;15.60;99543.00;;;;343603;28;82448;-89
2023/04/27 00:05:53;;;;;;;;;;;15.40;96.90;15.50;99544.00;;;;342901;28;90587;-88
2023/04/27 00:06:05;;;;;;;;;;;15.30;97.00;15.50;99546.00;;;;343755;28;83265;-89
2023/04/27 00:06:17;;;;;;;;;;;15.30;97.00;15.50;99540.00;;;;344479;28;89887;-89
2023/04/27 00:06:29;;;;;;;;;;;15.30;96.90;15.50;99548.00;;;;344910;28;83466;-89
2023/04/27 00:06:41;;;;;;;;;;;15.30;96.90;15.40;99541.00;;;;344688;28;88776;-89
2023/04/27 00:06:53;;;;;;;;;;;15.30;97.10;15.40;99539.00;;;;345008;28;83324;-90
2023/04/27 00:07:05;;;;;;;;;;;15.30;97.20;15.30;99541.00;;;;341877;28;89160;-89
2023/04/27 00:07:17;;;;;;;;;;;15.20;97.20;15.30;99551.00;;;;343464;28;83509;-89
2023/04/27 00:07:29;;;;;;;;;;;15.20;97.20;15.30;99543.00;;;;344438;28;88742;-89
2023/04/27 00:07:41;;;;;;;;;;;15.20;97.20;15.40;99537.00;;;;343520;28;83402;-89
2023/04/27 00:07:53;;;;;;;;;;;15.20;97.20;15.50;99541.00;;;;341893;28;90104;-89
2023/04/27 00:08:05;;;;;;;;;;;15.20;97.00;15.50;99536.00;;;;343900;28;83334;-88
2023/04/27 00:08:17;;;;;;;;;;;15.20;96.90;15.60;99548.00;;;;343036;28;89664;-88
2023/04/27 00:08:29;;;;;;;;;;;15.20;96.80;15.50;99541.00;;;;347554;28;83524;-89
2023/04/27 00:08:41;;;;;;;;;;;15.20;96.80;15.50;99536.00;;;;344692;28;88041;-89
2023/04/27 00:08:53;;;;;;;;;;;15.20;97.00;15.40;99536.00;;;;342256;28;83358;-89
2023/04/27 00:09:05;;;;;;;;;;;15.20;97.10;15.40;99546.00;;;;344283;28;90466;-89
2023/04/27 00:09:17;;;;;;;;;;;15.20;97.20;15.40;99544.00;;;;343541;28;82562;-89
2023/04/27 00:09:29;;;;;;;;;;;15.20;97.10;15.40;99542.00;;;;344451;28;89412;-89
2023/04/27 00:09:41;;;;;;;;;;;15.20;97.00;15.40;99546.00;;;;345022;28;83280;-90
2023/04/27 00:09:53;;;;;;;;;;;15.20;97.10;15.40;99540.00;;;;342944;28;89918;-89
2023/04/27 00:10:05;;;;;;;;;;;15.20;97.20;15.40;99545.00;;;;343782;28;82387;-90
2023/04/27 00:10:17;;;;;;;;;;;15.20;97.10;15.50;99538.00;;;;342946;28;89238;-89
2023/04/27 00:10:29;;;;;;;;;;;15.20;97.00;15.40;99539.00;;;;343495;28;83390;-89
2023/04/27 00:10:41;;;;;;;;;;;15.20;97.20;15.40;99538.00;;;;343223;28;88046;-89
2023/04/27 00:10:52;;;;;;;;;;;15.20;97.40;15.30;99536.00;;;;342454;28;82465;-89
2023/04/27 00:11:05;;;;;;;;;;;15.20;97.40;15.40;99542.00;;;;343189;28;88639;-89
2023/04/27 00:11:17;;;;;;;;;;;15.20;97.30;15.40;99546.00;;;;343796;28;83425;-89
2023/04/27 00:11:29;;;;;;;;;;;15.20;97.30;15.40;99539.00;;;;346035;28;89838;-89
2023/04/27 00:11:41;;;;;;;;;;;15.20;97.30;15.40;99537.00;;;;345228;28;83294;-89
2023/04/27 00:11:53;;;;;;;;;;;15.10;97.30;15.30;99538.00;;;;344501;28;91631;-89
2023/04/27 00:12:05;;;;;;;;;;;15.20;97.40;15.30;99537.00;;;;341123;28;83363;-89
2023/04/27 00:12:17;;;;;;;;;;;15.10;97.40;15.30;99545.00;;;;345743;28;89747;-89
2023/04/27 00:12:29;;;;;;;;;;;15.10;97.40;15.30;99542.00;;;;346546;28;83443;-89
2023/04/27 00:12:41;;;;;;;;;;;15.10;97.30;15.30;99541.00;;;;343204;28;90500;-87
2023/04/27 00:12:53;;;;;;;;;;;15.10;97.40;15.30;99535.00;;;;343707;28;83424;-88
2023/04/27 00:13:05;;;;;;;;;;;15.10;97.40;15.30;99545.00;;;;343138;28;89266;-89
2023/04/27 00:13:16;;;;;;;;;;;15.10;97.50;15.30;99544.00;;;;343930;28;83313;-89
2023/04/27 00:13:28;;;;;;;;;;;15.10;97.50;15.40;99545.00;;;;344276;28;91069;-89
2023/04/27 00:13:40;;;;;;;;;;;15.10;97.30;15.30;99537.00;;;;345111;28;82313;-89
2023/04/27 00:13:52;;;;;;;;;;;15.10;97.30;15.40;99534.00;;;;344546;28;88992;-89
2023/04/27 00:14:04;;;;;;;;;;;15.10;97.20;15.30;99542.00;;;;347706;28;83238;-89
2023/04/27 00:14:16;;;;;;;;;;;15.10;97.30;15.40;99531.00;;;;345610;28;91309;-89
2023/04/27 00:14:28;;;;;;;;;;;15.10;97.30;15.30;99546.00;;;;343597;28;82381;-89
2023/04/27 00:14:40;;;;;;;;;;;15.10;97.30;15.30;99537.00;;;;344487;28;89249;-89
2023/04/27 00:14:51;;;;;;;;;;;15.10;97.40;15.30;99546.00;;;;347618;28;82298;-89
2023/04/27 00:15:04;;;;;;;;;;;15.10;97.30;15.40;99541.00;;;;342992;28;89067;-89
2023/04/27 00:15:16;;;;;;;;;;;15.10;97.20;15.40;99536.00;;;;346370;28;83155;-89
2023/04/27 00:15:27;;;;;;;;;;;15.10;97.20;15.40;99538.00;;;;344422;28;89738;-89
2023/04/27 00:15:39;;;;;;;;;;;15.10;97.30;15.40;99532.00;;;;343620;28;82149;-88
2023/04/27 00:15:51;;;;;;;;;;;15.10;97.10;15.50;99538.00;;;;343150;28;89441;-89
2023/04/27 00:16:04;;;;;;;;;;;15.10;97.00;15.50;99544.00;;;;347675;28;83344;-89
2023/04/27 00:16:16;;;;;;;;;;;15.10;97.00;15.30;99544.00;;;;347303;28;89475;-89
2023/04/27 00:16:28;;;;;;;;;;;15.10;97.40;15.30;99536.00;;;;344865;28;83110;-89
2023/04/27 00:16:40;;;;;;;;;;;15.10;97.60;15.50;99536.00;;;;342858;28;90645;-89
2023/04/27 00:16:52;;;;;;;;;;;15.10;97.40;15.50;99539.00;;;;346064;28;83406;-88
2023/04/27 00:17:03;;;;;;;;;;;15.10;97.60;15.40;99547.00;;;;342870;28;90409;-89
2023/04/27 00:17:15;;;;;;;;;;;15.10;97.70;15.30;99545.00;;;;346365;28;82340;-89
2023/04/27 00:17:27;;;;;;;;;;;15.10;97.60;15.30;99540.00;;;;344461;28;89573;-89
2023/04/27 00:17:39;;;;;;;;;;;15.10;97.70;15.30;99543.00;;;;343577;28;82577;-89
2023/04/27 00:17:51;;;;;;;;;;;15.10;97.80;15.20;99538.00;;;;343081;28;90663;-89
2023/04/27 00:18:03;;;;;;;;;;;15.10;97.90;15.20;99534.00;;;;345011;28;83372;-89
2023/04/27 00:18:15;;;;;;;;;;;15.10;97.90;15.20;99539.00;;;;343158;28;87224;-89
2023/04/27 00:18:27;;;;;;;;;;;15.10;97.90;15.20;99533.00;;;;344870;28;83281;-89
2023/04/27 00:18:39;;;;;;;;;;;15.10;98.00;15.20;99542.00;;;;345869;28;89191;-89
2023/04/27 00:18:51;;;;;;;;;;;15.10;98.00;15.20;99539.00;;;;349070;27;83426;-89
2023/04/27 00:19:03;;;;;;;;;;;15.10;97.90;15.10;99541.00;;;;344634;28;89089;-87
2023/04/27 00:19:15;;;;;;;;;;;15.10;98.10;15.20;99538.00;;;;346430;28;83396;-89
2023/04/27 00:19:27;;;;;;;;;;;15.00;98.00;15.20;99547.00;;;;343098;28;90629;-89
2023/04/27 00:19:40;;;;;;;;;;;15.00;97.90;15.30;99539.00;;;;345143;28;82231;-89
2023/04/27 00:19:53;;;;;;;;;;;15.00;97.90;15.30;99543.00;;;;346136;28;89634;-89
2023/04/27 00:20:07;;;;;;;;;;;15.00;97.80;15.20;99546.00;;;;346484;28;82360;-89
2023/04/27 00:20:19;;;;;;;;;;;15.10;97.90;15.20;99534.00;;;;343318;28;89240;-89
2023/04/27 00:20:32;;;;;;;;;;;15.00;98.10;15.30;99537.00;;;;346331;28;83465;-89
2023/04/27 00:20:44;;;;;;;;;;;15.00;98.00;15.40;99535.00;;;;346057;28;89147;-89
2023/04/27 00:20:56;;;;;;;;;;;15.00;97.80;15.30;99542.00;;;;346359;28;83379;-89
2023/04/27 00:21:08;;;;;;;;;;;15.00;98.00;15.30;99538.00;;;;346045;28;88378;-89
2023/04/27 00:21:20;;;;;;;;;;;15.00;98.00;15.20;99543.00;;;;344998;28;82479;-89
2023/04/27 00:21:32;;;;;;;;;;;15.00;98.10;15.30;99531.00;;;;345911;28;89356;-89
2023/04/27 00:21:44;;;;;;;;;;;15.00;98.00;15.30;99536.00;;;;345132;28;82366;-89
2023/04/27 00:21:56;;;;;;;;;;;15.00;97.80;15.40;99537.00;;;;343322;28;90436;-89
2023/04/27 00:22:08;;;;;;;;;;;15.10;97.80;15.40;99538.00;;;;347682;28;83371;-89
2023/04/27 00:22:21;;;;;;;;;;;15.00;97.60;15.40;99539.00;;;;346000;28;90836;-89
2023/04/27 00:22:32;;;;;;;;;;;15.10;97.60;15.40;99536.00;;;;346097;28;83436;-89
2023/04/27 00:22:44;;;;;;;;;;;15.10;97.50;15.40;99531.00;;;;344355;28;90766;-90
2023/04/27 00:22:56;;;;;;;;;;;15.10;97.50;15.40;99532.00;;;;343488;28;83364;-89
2023/04/27 00:23:08;;;;;;;;;;;15.10;97.40;15.40;99535.00;;;;343058;28;89499;-89
2023/04/27 00:23:20;;;;;;;;;;;15.10;97.40;15.40;99535.00;;;;343681;28;82456;-88
2023/04/27 00:23:31;;;;;;;;;;;15.10;97.30;15.40;99534.00;;;;343250;28;89051;-89
2023/04/27 00:23:43;;;;;;;;;;;15.10;97.30;15.40;99526.00;;;;343634;28;83369;-90
2023/04/27 00:23:55;;;;;;;;;;;15.10;97.30;15.40;99527.00;;;;347209;27;90615;-88
2023/04/27 00:24:07;;;;;;;;;;;15.10;97.20;15.40;99523.00;;;;349309;27;82439;-89
2023/04/27 00:24:19;;;;;;;;;;;15.10;97.30;15.50;99528.00;;;;344604;28;89395;-88
2023/04/27 00:24:31;;;;;;;;;;;15.10;97.30;15.50;99529.00;;;;346371;28;83344;-89
2023/04/27 00:24:42;;;;;;;;;;;15.10;97.30;15.50;99525.00;;;;348924;27;91226;-89
2023/04/27 00:24:54;;;;;;;;;;;15.10;97.30;15.50;99531.00;;;;346169;28;83436;-89
2023/04/27 00:25:06;;;;;;;;;;;15.10;97.20;15.50;99529.00;;;;345809;28;91769;-89
2023/04/27 00:25:18;;;;;;;;;;;15.10;97.40;15.40;99531.00;;;;346479;28;83403;-89
2023/04/27 00:25:30;;;;;;;;;;;15.10;97.20;15.50;99528.00;;;;344521;28;91852;-89
2023/04/27 00:25:42;;;;;;;;;;;15.10;97.20;15.50;99522.00;;;;345072;28;83561;-89
2023/04/27 00:25:54;;;;;;;;;;;15.10;97.20;15.40;99524.00;;;;346032;28;88628;-89
2023/04/27 00:26:06;;;;;;;;;;;15.10;97.40;15.40;99528.00;;;;343596;28;83534;-89
2023/04/27 00:26:18;;;;;;;;;;;15.10;97.50;15.40;99525.00;;;;345654;28;90331;-89
2023/04/27 00:26:30;;;;;;;;;;;15.10;97.50;15.50;99525.00;;;;348692;27;83490;-89
2023/04/27 00:26:42;;;;;;;;;;;15.10;97.50;15.50;99522.00;;;;345799;28;89412;-89
2023/04/27 00:26:53;;;;;;;;;;;15.10;97.60;15.50;99532.00;;;;345851;28;83406;-89
2023/04/27 00:27:05;;;;;;;;;;;15.20;97.70;15.50;99521.00;;;;345515;28;90265;-89
2023/04/27 00:27:17;;;;;;;;;;;15.10;97.70;15.50;99530.00;;;;343331;28;83407;-89
2023/04/27 00:27:29;;;;;;;;;;;15.20;97.60;15.50;99533.00;;;;344427;28;91575;-90
2023/04/27 00:27:41;;;;;;;;;;;15.10;97.50;15.50;99522.00;;;;344976;28;82503;-89
2023/04/27 00:27:53;;;;;;;;;;;15.10;97.40;15.50;99523.00;;;;346063;28;88548;-89
2023/04/27 00:28:05;;;;;;;;;;;15.20;97.30;15.50;99526.00;;;;347381;28;83460;-89
2023/04/27 00:28:16;;;;;;;;;;;15.20;97.40;15.60;99526.00;;;;346965;28;89699;-89
2023/04/27 00:28:28;;;;;;;;;;;15.20;97.40;15.50;99521.00;;;;343565;28;82468;-89
2023/04/27 00:28:40;;;;;;;;;;;15.20;97.50;15.50;99529.00;;;;345558;28;90710;-89
2023/04/27 00:28:52;;;;;;;;;;;15.20;97.60;15.50;99522.00;;;;348890;27;83489;-89
2023/04/27 00:29:04;;;;;;;;;;;15.20;97.60;15.50;99529.00;;;;348546;27;88379;-89
2023/04/27 00:29:16;;;;;;;;;;;15.20;97.50;15.50;99529.00;;;;347700;28;83424;-89
2023/04/27 00:29:27;;;;;;;;;;;15.20;97.40;15.50;99527.00;;;;345600;28;90426;-90
2023/04/27 00:29:42;;;;;;;;;;;15.20;97.50;15.60;99524.00;;;;346223;28;83164;-87
2023/04/27 00:29:55;;;;;;;;;;;15.20;97.50;15.70;99531.00;;;;343086;28;89126;-89
2023/04/27 00:30:07;;;;;;;;;;;15.20;97.40;15.70;99534.00;;;;346380;28;82468;-90
2023/04/27 00:30:19;;;;;;;;;;;15.20;97.70;15.60;99526.00;;;;345966;28;89531;-89
2023/04/27 00:30:31;;;;;;;;;;;15.20;97.50;15.50;99522.00;;;;344954;28;83191;-89
2023/04/27 00:30:43;;;;;;;;;;;15.30;97.50;15.60;99528.00;;;;347043;28;89394;-89
2023/04/27 00:30:55;;;;;;;;;;;15.20;97.40;15.70;99533.00;;;;345068;28;83446;-90
2023/04/27 00:31:07;;;;;;;;;;;15.30;97.40;15.70;99528.00;;;;344548;28;89174;-89
2023/04/27 00:31:20;;;;;;;;;;;15.30;97.50;15.70;99525.00;;;;347404;28;82536;-89
2023/04/27 00:31:32;;;;;;;;;;;15.30;97.60;15.70;99530.00;;;;344517;28;92467;-89
2023/04/27 00:31:43;;;;;;;;;;;15.30;97.50;15.70;99531.00;;;;343535;28;83457;-89
2023/04/27 00:31:55;;;;;;;;;;;15.30;97.60;15.70;99535.00;;;;345954;28;88624;-89
2023/04/27 00:32:09;;;;;;;;;;;15.30;97.60;15.70;99531.00;;;;346318;28;83304;-89
2023/04/27 00:32:21;;;;;;;;;;;15.30;97.40;15.50;99531.00;;;;343248;28;89122;-89
2023/04/27 00:32:33;;;;;;;;;;;15.30;97.70;15.40;99529.00;;;;346332;28;82520;-88
2023/04/27 00:32:45;;;;;;;;;;;15.30;97.90;15.30;99517.00;;;;344526;28;87837;-89
2023/04/27 00:32:57;;;;;;;;;;;15.20;98.00;15.30;99535.00;;;;347525;28;82559;-89
2023/04/27 00:33:09;;;;;;;;;;;15.20;98.00;15.30;99530.00;;;;344380;28;89366;-89
2023/04/27 00:33:21;;;;;;;;;;;15.20;98.00;15.30;99525.00;;;;346326;28;83295;-89
2023/04/27 00:33:33;;;;;;;;;;;15.20;97.90;15.40;99539.00;;;;345622;28;89218;-89
2023/04/27 00:33:44;;;;;;;;;;;15.20;97.80;15.40;99524.00;;;;343494;28;83442;-89
2023/04/27 00:33:56;;;;;;;;;;;15.20;97.80;15.40;99528.00;;;;341704;28;88782;-89
2023/04/27 00:34:08;;;;;;;;;;;15.20;97.80;15.40;99535.00;;;;347473;28;83448;-89
2023/04/27 00:34:20;;;;;;;;;;;15.20;97.90;15.40;99533.00;;;;345901;28;87658;-89
2023/04/27 00:34:31;;;;;;;;;;;15.20;98.00;15.40;99527.00;;;;347514;28;82553;-89
2023/04/27 00:34:43;;;;;;;;;;;15.20;97.90;15.30;99533.00;;;;345859;28;89066;-89
2023/04/27 00:34:55;;;;;;;;;;;15.20;98.00;15.30;99533.00;;;;343491;28;83253;-89
2023/04/27 00:35:07;;;;;;;;;;;15.20;98.00;15.50;99532.00;;;;347052;27;90532;-89
2023/04/27 00:35:19;;;;;;;;;;;15.20;97.90;15.50;99526.00;;;;343370;28;83531;-89
2023/04/27 00:35:32;;;;;;;;;;;15.20;97.90;15.50;99527.00;;;;344665;28;89377;-89
2023/04/27 00:35:44;;;;;;;;;;;15.20;98.00;15.40;99532.00;;;;347853;27;83285;-89
2023/04/27 00:36:00;;;;;;;;;;;15.20;97.90;15.40;99528.00;;;;343180;28;89528;-89
2023/04/27 00:36:12;;;;;;;;;;;15.20;97.90;15.50;99528.00;;;;344731;28;83462;-89
2023/04/27 00:36:24;;;;;;;;;;;15.20;97.70;15.50;99532.00;;;;344597;28;88711;-89
2023/04/27 00:36:35;;;;;;;;;;;15.20;97.90;15.40;99528.00;;;;346421;28;83417;-89
2023/04/27 00:36:47;;;;;;;;;;;15.20;98.00;15.50;99529.00;;;;344611;28;89127;-89
2023/04/27 00:36:59;;;;;;;;;;;15.20;97.80;15.40;99521.00;;;;343770;28;83333;-89
2023/04/27 00:37:11;;;;;;;;;;;15.20;97.90;15.40;99529.00;;;;345882;28;92415;-89
2023/04/27 00:37:23;;;;;;;;;;;15.20;97.90;15.40;99529.00;;;;345117;28;83288;-89
2023/04/27 00:37:35;;;;;;;;;;;15.20;97.90;15.40;99523.00;;;;345984;28;89383;-89
2023/04/27 00:37:47;;;;;;;;;;;15.20;97.80;15.50;99526.00;;;;344956;28;83384;-89
2023/04/27 00:37:59;;;;;;;;;;;15.20;97.70;15.50;99518.00;;;;345730;28;90256;-89
2023/04/27 00:38:11;;;;;;;;;;;15.20;97.60;15.50;99522.00;;;;345028;28;83327;-88
2023/04/27 00:38:22;;;;;;;;;;;15.20;97.70;15.40;99520.00;;;;347177;28;90403;-89
2023/04/27 00:38:34;;;;;;;;;;;15.20;97.90;15.30;99519.00;;;;346521;28;83533;-89
2023/04/27 00:38:46;;;;;;;;;;;15.20;98.10;15.30;99517.00;;;;344961;28;88683;-89
2023/04/27 00:38:58;;;;;;;;;;;15.20;98.20;15.40;99523.00;;;;346722;28;83322;-89
2023/04/27 00:39:09;;;;;;;;;;;15.20;98.10;15.50;99526.00;;;;345923;28;90562;-89
2023/04/27 00:39:21;;;;;;;;;;;15.20;97.90;15.40;99522.00;;;;346522;28;82577;-89
2023/04/27 00:39:34;;;;;;;;;;;15.20;97.90;15.30;99523.00;;;;345031;28;91898;-89
2023/04/27 00:39:46;;;;;;;;;;;15.20;98.20;15.30;99524.00;;;;346453;28;83324;-89
2023/04/27 00:39:58;;;;;;;;;;;15.20;98.20;15.40;99518.00;;;;347749;28;88209;-89
2023/04/27 00:40:10;;;;;;;;;;;15.20;98.10;15.40;99529.00;;;;346540;28;82246;-89
2023/04/27 00:40:22;;;;;;;;;;;15.20;97.90;15.50;99526.00;;;;345902;28;89575;-89
2023/04/27 00:40:34;;;;;;;;;;;15.20;97.90;15.40;99528.00;;;;345391;28;82279;-89
2023/04/27 00:40:46;;;;;;;;;;;15.20;98.00;15.40;99519.00;;;;343485;28;89492;-89
2023/04/27 00:41:04;;;;;;;;;;;15.20;98.10;15.30;99534.00;;;;344990;28;83509;-89
2023/04/27 00:41:16;;;;;;;;;;;15.20;98.10;15.30;99522.00;;;;346195;28;89537;-89
2023/04/27 00:41:29;;;;;;;;;;;15.10;98.10;15.30;99528.00;;;;346151;28;82547;-89
2023/04/27 00:41:41;;;;;;;;;;;15.10;98.10;15.30;99530.00;;;;347317;28;89417;-89
2023/04/27 00:41:52;;;;;;;;;;;15.20;98.30;15.30;99535.00;;;;343716;28;83272;-89
2023/04/27 00:42:05;;;;;;;;;;;15.10;98.30;15.30;99524.00;;;;345864;28;88903;-89
2023/04/27 00:42:18;;;;;;;;;;;15.10;98.20;15.20;99530.00;;;;346601;28;83590;-89
2023/04/27 00:42:30;;;;;;;;;;;15.10;98.30;15.20;99530.00;;;;345766;28;87781;-89
2023/04/27 00:42:42;;;;;;;;;;;15.10;98.30;15.30;99526.00;;;;346682;28;83422;-89
2023/04/27 00:42:53;;;;;;;;;;;15.10;98.20;15.30;99522.00;;;;343231;28;91000;-89
2023/04/27 00:43:05;;;;;;;;;;;15.10;98.10;15.40;99524.00;;;;346370;28;82569;-89
2023/04/27 00:43:17;;;;;;;;;;;15.10;98.00;15.50;99523.00;;;;347364;28;90039;-89
2023/04/27 00:43:29;;;;;;;;;;;15.10;98.00;15.60;99526.00;;;;345326;28;82362;-88
2023/04/27 00:43:44;;;;;;;;;;;15.20;98.10;15.50;99526.00;;;;345990;28;88950;-89
2023/04/27 00:43:56;;;;;;;;;;;15.10;98.40;15.40;99524.00;;;;346666;28;82628;-89
2023/04/27 00:44:08;;;;;;;;;;;15.10;98.40;15.40;99528.00;;;;342200;28;90527;-89
2023/04/27 00:44:24;;;;;;;;;;;15.10;98.50;15.30;99527.00;;;;347792;28;82611;-89
2023/04/27 00:44:36;;;;;;;;;;;15.10;98.50;15.30;99531.00;;;;344657;28;90069;-89
2023/04/27 00:44:50;;;;;;;;;;;15.10;98.50;15.30;99520.00;;;;347641;28;83528;-89
2023/04/27 00:45:04;;;;;;;;;;;15.10;98.40;15.30;99520.00;;;;346051;28;91829;-89
2023/04/27 00:45:15;;;;;;;;;;;15.10;98.40;15.20;99520.00;;;;345036;28;83441;-88
2023/04/27 00:45:27;;;;;;;;;;;15.10;98.60;15.20;99512.00;;;;345818;28;88339;-89
2023/04/27 00:45:41;;;;;;;;;;;15.10;98.90;15.20;99522.00;;;;344933;28;83228;-89
2023/04/27 00:45:53;;;;;;;;;;;15.10;98.50;15.30;99522.00;;;;344224;28;90484;-89
2023/04/27 00:46:05;;;;;;;;;;;15.10;98.40;15.30;99524.00;;;;345978;28;82571;-89
2023/04/27 00:46:18;;;;;;;;;;;15.10;98.30;15.30;99526.00;;;;345850;28;89554;-89
2023/04/27 00:46:31;;;;;;;;;;;15.10;98.40;15.20;99522.00;;;;344741;28;83481;-88
2023/04/27 00:46:42;;;;;;;;;;;15.10;98.50;15.20;99524.00;;;;345587;28;89554;-89
2023/04/27 00:46:54;;;;;;;;;;;15.10;98.60;15.20;99518.00;;;;346157;28;83464;-89
2023/04/27 00:47:06;;;;;;;;;;;15.00;98.60;15.20;99521.00;;;;347170;28;88061;-89
2023/04/27 00:47:18;;;;;;;;;;;15.10;98.70;15.20;99517.00;;;;346322;28;83362;-89
2023/04/27 00:47:30;;;;;;;;;;;15.00;98.70;15.20;99522.00;;;;345792;28;89332;-89
2023/04/27 00:47:42;;;;;;;;;;;15.00;98.60;15.20;99516.00;;;;343250;28;83536;-89
2023/04/27 00:47:54;;;;;;;;;;;15.10;98.50;15.30;99523.00;;;;342973;28;90196;-89
2023/04/27 00:48:06;;;;;;;;;;;15.10;98.30;15.30;99527.00;;;;346304;28;82564;-89
2023/04/27 00:48:18;;;;;;;;;;;15.10;98.30;15.30;99524.00;;;;347047;28;88194;-89
2023/04/27 00:48:30;;;;;;;;;;;15.10;98.70;15.20;99527.00;;;;344609;28;82602;-89
2023/04/27 00:48:42;;;;;;;;;;;15.10;98.60;15.20;99517.00;;;;348984;27;88304;-89
2023/04/27 00:48:55;;;;;;;;;;;15.10;98.60;15.20;99518.00;;;;347967;28;83332;-89
2023/04/27 00:49:06;;;;;;;;;;;15.10;98.60;15.30;99520.00;;;;347267;28;91093;-88
2023/04/27 00:49:19;;;;;;;;;;;15.00;98.50;15.30;99519.00;;;;345313;28;83267;-89
2023/04/27 00:49:31;;;;;;;;;;;15.10;98.50;15.20;99518.00;;;;344780;28;88393;-89
2023/04/27 00:49:43;;;;;;;;;;;15.10;98.50;15.20;99520.00;;;;345174;28;83364;-89
2023/04/27 00:49:55;;;;;;;;;;;15.10;98.70;15.20;99523.00;;;;347355;28;92123;-89
2023/04/27 00:50:09;;;;;;;;;;;15.10;98.80;15.20;99513.00;;;;346716;28;82401;-89
2023/04/27 00:50:26;;;;;;;;;;;15.00;98.80;15.20;99521.00;;;;343722;28;87933;-88
2023/04/27 00:50:38;;;;;;;;;;;15.00;98.80;15.30;99519.00;;;;345409;28;83364;-89
2023/04/27 00:50:50;;;;;;;;;;;15.00;98.60;15.30;99516.00;;;;348476;27;87423;-89
2023/04/27 00:51:01;;;;;;;;;;;15.00;98.60;15.30;99519.00;;;;345497;28;83345;-89
2023/04/27 00:51:13;;;;;;;;;;;15.00;98.50;15.30;99517.00;;;;346301;28;88582;-89
2023/04/27 00:51:27;;;;;;;;;;;15.00;98.50;15.30;99513.00;;;;346787;28;83223;-89
2023/04/27 00:51:38;;;;;;;;;;;15.00;98.60;15.20;99520.00;;;;346166;28;90375;-89
2023/04/27 00:51:50;;;;;;;;;;;15.00;98.60;15.20;99514.00;;;;346723;28;82453;-88
2023/04/27 00:52:02;;;;;;;;;;;15.00;98.50;15.20;99513.00;;;;346240;28;88574;-89
2023/04/27 00:52:14;;;;;;;;;;;15.00;98.60;15.10;99518.00;;;;343900;28;82564;-89
2023/04/27 00:52:26;;;;;;;;;;;15.00;98.70;15.20;99514.00;;;;347263;27;90432;-88
2023/04/27 00:52:38;;;;;;;;;;;15.00;98.70;15.20;99514.00;;;;348127;28;83202;-89
2023/04/27 00:52:50;;;;;;;;;;;15.00;98.80;15.10;99509.00;;;;344729;28;89206;-89
2023/04/27 00:53:01;;;;;;;;;;;15.00;98.70;15.20;99506.00;;;;346559;28;83261;-88
2023/04/27 00:53:13;;;;;;;;;;;15.00;98.80;15.10;99507.00;;;;347691;27;89268;-88
2023/04/27 00:53:25;;;;;;;;;;;15.00;98.80;15.10;99510.00;;;;346821;28;82238;-89
2023/04/27 00:53:37;;;;;;;;;;;15.00;98.80;15.10;99512.00;;;;345021;28;89484;-89
2023/04/27 00:53:49;;;;;;;;;;;15.00;98.90;15.20;99523.00;;;;342698;28;82390;-89
2023/04/27 00:54:01;;;;;;;;;;;15.00;98.80;15.20;99504.00;;;;347486;28;90306;-89
2023/04/27 00:54:18;;;;;;;;;;;15.00;98.70;15.20;99513.00;;;;346472;28;82565;-88
2023/04/27 00:54:30;;;;;;;;;;;15.00;98.70;15.20;99513.00;;;;344663;28;89381;-89
2023/04/27 00:54:41;;;;;;;;;;;15.00;98.50;15.20;99513.00;;;;345006;28;82337;-89
2023/04/27 00:54:53;;;;;;;;;;;15.00;98.50;15.20;99514.00;;;;347347;28;89304;-89
2023/04/27 00:55:06;;;;;;;;;;;15.00;98.60;15.20;99514.00;;;;348101;28;83318;-89
2023/04/27 00:55:18;;;;;;;;;;;15.00;98.60;15.20;99513.00;;;;344276;28;90717;-89
2023/04/27 00:55:30;;;;;;;;;;;15.00;98.60;15.20;99513.00;;;;347471;28;83489;-88
2023/04/27 00:55:42;;;;;;;;;;;15.00;98.70;15.20;99510.00;;;;345797;28;91755;-89
2023/04/27 00:55:55;;;;;;;;;;;15.00;98.70;15.20;99518.00;;;;346418;28;83173;-88
2023/04/27 00:56:07;;;;;;;;;;;15.00;98.60;15.20;99513.00;;;;344364;28;90572;-89
2023/04/27 00:56:19;;;;;;;;;;;15.00;98.80;15.20;99511.00;;;;344977;28;83316;-89
2023/04/27 00:56:30;;;;;;;;;;;15.00;98.40;15.20;99517.00;;;;344421;28;89175;-89
2023/04/27 00:56:42;;;;;;;;;;;15.00;98.70;15.20;99514.00;;;;344803;28;83402;-89
2023/04/27 00:56:54;;;;;;;;;;;15.00;98.80;15.20;99511.00;;;;343190;28;90793;-89
2023/04/27 00:57:06;;;;;;;;;;;15.00;98.80;15.20;99516.00;;;;343553;28;83400;-89
2023/04/27 00:57:18;;;;;;;;;;;15.00;98.60;15.30;99512.00;;;;343068;28;90448;-89
2023/04/27 00:57:30;;;;;;;;;;;15.00;98.50;15.40;99513.00;;;;347600;28;83416;-89
2023/04/27 00:57:42;;;;;;;;;;;15.00;98.40;15.40;99512.00;;;;344532;28;89782;-89
2023/04/27 00:57:55;;;;;;;;;;;15.00;98.40;15.40;99512.00;;;;346222;28;82591;-89
2023/04/27 00:58:07;;;;;;;;;;;15.00;98.30;15.40;99518.00;;;;345547;28;91361;-88
2023/04/27 00:58:19;;;;;;;;;;;15.00;98.30;15.30;99516.00;;;;344910;28;83302;-89
2023/04/27 00:58:31;;;;;;;;;;;15.00;98.40;15.30;99512.00;;;;344399;28;86600;-89
2023/04/27 00:58:43;;;;;;;;;;;15.10;98.50;15.30;99519.00;;;;348613;27;82550;-89
2023/04/27 00:58:55;;;;;;;;;;;15.00;98.50;15.30;99510.00;;;;347121;28;91235;-89
2023/04/27 00:59:07;;;;;;;;;;;15.00;98.60;15.20;99520.00;;;;344681;28;83436;-90
2023/04/27 00:59:19;;;;;;;;;;;15.10;98.70;15.30;99517.00;;;;346954;28;89579;-89
2023/04/27 00:59:30;;;;;;;;;;;15.00;98.70;15.20;99516.00;;;;347648;28;83510;-89
2023/04/27 00:59:42;;;;;;;;;;;15.00;98.70;15.20;99517.00;;;;346947;28;89550;-89
2023/04/27 00:59:54;;;;;;;;;;;15.10;98.80;15.20;99514.00;;;;348826;27;83495;-89
2023/04/27 01:00:06;;;;;;;;;;;15.00;98.90;15.20;99521.00;;;;346870;28;91794;-89